createdAt,value
2022-10-16T00:01:08.424Z,99.90
2022-10-16T00:03:36.599Z,99.90
2022-10-16T00:06:05.231Z,99.90
2022-10-16T00:08:34.848Z,99.90
2022-10-16T00:11:04.376Z,99.90
2022-10-16T00:13:33.016Z,99.90
2022-10-16T00:16:02.991Z,99.90
2022-10-16T00:18:31.549Z,99.90
2022-10-16T00:21:05.501Z,99.90
2022-10-16T00:23:35.269Z,99.90
2022-10-16T00:26:06.492Z,99.90
2022-10-16T00:28:35.987Z,99.90
2022-10-16T00:31:07.755Z,99.90
2022-10-16T00:33:36.201Z,99.90
2022-10-16T00:36:05.871Z,99.90
2022-10-16T00:38:35.586Z,99.90
2022-10-16T00:41:03.635Z,99.90
2022-10-16T00:43:38.945Z,99.90
2022-10-16T00:46:13.081Z,99.90
2022-10-16T00:48:41.251Z,99.90
2022-10-16T00:51:10.096Z,99.90
2022-10-16T00:53:39.492Z,99.90
2022-10-16T00:56:08.205Z,99.90
2022-10-16T00:58:36.181Z,99.90
2022-10-16T01:01:04.314Z,99.90
2022-10-16T01:03:34.465Z,99.90
2022-10-16T01:06:18.655Z,99.90
2022-10-16T01:08:57.566Z,99.90
2022-10-16T01:11:32.197Z,99.90
2022-10-16T01:14:08.154Z,99.90
2022-10-16T01:16:42.658Z,99.90
2022-10-16T01:19:15.703Z,99.90
2022-10-16T01:21:46.006Z,99.90
2022-10-16T01:24:25.477Z,99.90
2022-10-16T01:27:08.127Z,99.90
2022-10-16T01:29:41.458Z,99.90
2022-10-16T01:32:12.553Z,99.90
2022-10-16T01:34:46.472Z,99.90
2022-10-16T01:37:18.461Z,99.90
2022-10-16T01:39:49.158Z,99.90
2022-10-16T01:42:23.475Z,99.90
2022-10-16T01:44:53.139Z,99.90
2022-10-16T01:47:25.868Z,99.90
2022-10-16T01:49:55.229Z,99.90
2022-10-16T01:52:28.142Z,99.90
2022-10-16T01:54:59.598Z,99.90
2022-10-16T01:57:29.794Z,99.90
2022-10-16T02:00:03.201Z,99.90
2022-10-16T02:02:41.934Z,99.90
2022-10-16T02:05:14.613Z,99.90
2022-10-16T02:07:43.130Z,99.90
2022-10-16T02:10:12.285Z,99.90
2022-10-16T02:12:46.515Z,99.90
2022-10-16T02:15:14.785Z,99.90
2022-10-16T02:17:42.699Z,99.90
2022-10-16T02:20:11.851Z,99.90
2022-10-16T02:22:44.723Z,99.90
2022-10-16T02:25:19.426Z,99.90
2022-10-16T02:27:56.081Z,99.90
2022-10-16T02:30:29.559Z,99.90
2022-10-16T02:32:58.132Z,99.90
2022-10-16T02:35:28.063Z,99.90
2022-10-16T02:37:57.691Z,99.90
2022-10-16T02:40:26.276Z,99.90
2022-10-16T02:42:56.501Z,99.90
2022-10-16T02:45:25.596Z,99.90
2022-10-16T02:47:53.780Z,99.90
2022-10-16T02:50:21.999Z,99.90
2022-10-16T02:52:50.587Z,99.90
2022-10-16T02:55:18.977Z,99.90
2022-10-16T02:57:47.058Z,99.90
2022-10-16T03:00:18.867Z,99.90
2022-10-16T03:02:47.572Z,99.90
2022-10-16T03:05:16.094Z,99.90
2022-10-16T03:07:46.494Z,99.90
2022-10-16T03:10:14.555Z,99.90
2022-10-16T03:12:42.511Z,99.90
2022-10-16T03:15:12.100Z,99.90
2022-10-16T03:17:41.426Z,99.90
2022-10-16T03:20:10.089Z,99.90
2022-10-16T03:22:38.070Z,99.90
2022-10-16T03:25:06.956Z,99.90
2022-10-16T03:27:34.857Z,99.90
2022-10-16T03:30:02.952Z,99.90
2022-10-16T03:32:31.008Z,99.90
2022-10-16T03:35:00.409Z,99.90
2022-10-16T03:37:29.055Z,99.90
2022-10-16T03:39:57.264Z,99.90
2022-10-16T03:42:25.433Z,99.90
2022-10-16T03:44:53.423Z,99.90
2022-10-16T03:47:22.832Z,99.90
2022-10-16T03:49:51.140Z,99.90
2022-10-16T03:52:20.608Z,99.90
2022-10-16T03:54:48.582Z,99.90
2022-10-16T03:57:16.791Z,99.90
2022-10-16T03:59:44.833Z,99.90
2022-10-16T04:02:12.832Z,99.90
2022-10-16T04:04:40.893Z,99.90
2022-10-16T04:07:08.894Z,99.90
2022-10-16T04:09:38.207Z,99.90
2022-10-16T04:12:06.127Z,99.90
2022-10-16T04:14:34.118Z,99.90
2022-10-16T04:17:02.053Z,99.90
2022-10-16T04:19:30.093Z,99.90
2022-10-16T04:21:58.193Z,99.90
2022-10-16T04:24:26.150Z,99.90
2022-10-16T04:26:55.479Z,99.90
2022-10-16T04:29:23.469Z,99.90
2022-10-16T04:31:51.406Z,99.90
2022-10-16T04:34:19.413Z,99.90
2022-10-16T04:36:50.176Z,99.90
2022-10-16T04:39:18.289Z,99.90
2022-10-16T04:41:46.307Z,99.90
2022-10-16T04:44:15.743Z,99.90
2022-10-16T04:46:43.690Z,99.90
2022-10-16T04:49:11.648Z,99.90
2022-10-16T04:51:39.690Z,99.90
2022-10-16T04:54:07.798Z,99.90
2022-10-16T04:56:41.114Z,99.90
2022-10-16T04:59:08.928Z,99.90
2022-10-16T05:01:38.198Z,99.90
2022-10-16T05:04:06.277Z,99.90
2022-10-16T05:06:34.351Z,99.90
2022-10-16T05:09:02.372Z,99.90
2022-10-16T05:11:30.436Z,99.90
2022-10-16T05:13:58.445Z,99.90
2022-10-16T05:16:26.408Z,99.90
2022-10-16T05:18:56.288Z,99.90
2022-10-16T05:21:32.344Z,99.90
2022-10-16T05:24:00.318Z,99.90
2022-10-16T05:26:28.269Z,99.90
2022-10-16T05:28:56.816Z,99.90
2022-10-16T05:31:24.862Z,99.90
2022-10-16T05:33:52.845Z,99.90
2022-10-16T05:36:22.583Z,99.90
2022-10-16T05:39:01.236Z,99.90
2022-10-16T05:41:40.772Z,99.90
2022-10-16T05:44:08.918Z,99.90
2022-10-16T05:46:36.839Z,99.90
2022-10-16T05:49:05.189Z,99.90
2022-10-16T05:51:34.621Z,99.90
2022-10-16T05:54:02.634Z,99.90
2022-10-16T05:56:30.698Z,99.90
2022-10-16T05:58:58.754Z,99.90
2022-10-16T06:01:26.796Z,99.90
2022-10-16T06:03:55.020Z,99.90
2022-10-16T06:06:25.051Z,99.90
2022-10-16T06:08:55.424Z,99.90
2022-10-16T06:11:26.999Z,99.90
2022-10-16T06:13:57.501Z,99.90
2022-10-16T06:16:26.428Z,99.90
2022-10-16T06:18:55.316Z,99.90
2022-10-16T06:21:25.724Z,99.90
2022-10-16T06:23:55.994Z,99.90
2022-10-16T06:26:26.424Z,99.90
2022-10-16T06:28:56.587Z,99.90
2022-10-16T06:31:28.315Z,99.90
2022-10-16T06:33:57.160Z,99.90
2022-10-16T06:36:26.164Z,99.90
2022-10-16T06:38:56.297Z,99.90
2022-10-16T06:41:25.363Z,99.90
2022-10-16T06:43:54.113Z,99.90
2022-10-16T06:46:24.711Z,99.90
2022-10-16T06:48:52.812Z,99.90
2022-10-16T06:51:22.251Z,99.90
2022-10-16T06:54:08.176Z,99.90
2022-10-16T06:56:38.553Z,99.90
2022-10-16T06:59:06.653Z,99.90
2022-10-16T07:01:35.336Z,99.90
2022-10-16T07:04:04.435Z,99.90
2022-10-16T07:06:35.028Z,99.90
2022-10-16T07:09:06.083Z,99.90
2022-10-16T07:11:34.407Z,99.90
2022-10-16T07:14:03.776Z,99.90
2022-10-16T07:16:33.681Z,99.90
2022-10-16T07:19:03.662Z,99.90
2022-10-16T07:21:36.339Z,99.90
2022-10-16T07:24:05.697Z,99.90
2022-10-16T07:26:36.145Z,99.90
2022-10-16T07:29:05.595Z,99.90
2022-10-16T07:31:34.160Z,99.90
2022-10-16T07:34:02.595Z,99.90
2022-10-16T07:36:30.770Z,99.90
2022-10-16T07:39:00.069Z,99.90
2022-10-16T07:41:29.166Z,99.90
2022-10-16T07:44:00.840Z,99.90
2022-10-16T07:46:30.951Z,99.90
2022-10-16T07:48:59.021Z,99.90
2022-10-16T07:51:28.402Z,99.90
2022-10-16T07:53:56.795Z,99.90
2022-10-16T07:56:25.412Z,99.90
2022-10-16T07:58:54.188Z,99.90
2022-10-16T08:01:22.784Z,99.90
2022-10-16T08:03:54.130Z,99.80
2022-10-16T08:06:27.565Z,98.20
2022-10-16T08:08:56.715Z,97.60
2022-10-16T08:11:25.124Z,97.80
2022-10-16T08:13:53.243Z,97.80
2022-10-16T08:16:21.499Z,96.90
2022-10-16T08:18:49.566Z,96.00
2022-10-16T08:21:21.693Z,94.50
2022-10-16T08:23:54.638Z,95.10
2022-10-16T08:26:27.054Z,93.40
2022-10-16T08:28:55.220Z,91.70
2022-10-16T08:31:23.931Z,91.00
2022-10-16T08:33:53.147Z,89.10
2022-10-16T08:36:22.917Z,88.60
2022-10-16T08:38:54.351Z,89.40
2022-10-16T08:41:51.128Z,88.30
2022-10-16T08:44:40.740Z,87.00
2022-10-16T08:47:19.376Z,85.50
2022-10-16T08:49:57.453Z,85.90
2022-10-16T08:52:31.280Z,84.40
2022-10-16T08:54:59.612Z,85.30
2022-10-16T08:57:28.568Z,82.90
2022-10-16T09:00:01.204Z,82.50
2022-10-16T09:02:34.267Z,81.00
2022-10-16T09:05:19.192Z,81.00
2022-10-16T09:07:55.790Z,82.10
2022-10-16T09:10:36.046Z,80.00
2022-10-16T09:13:15.714Z,80.90
2022-10-16T09:15:49.905Z,79.30
2022-10-16T09:18:23.038Z,77.60
2022-10-16T09:20:53.758Z,81.00
2022-10-16T09:23:28.039Z,79.20
2022-10-16T09:25:57.772Z,80.30
2022-10-16T09:28:26.098Z,81.40
2022-10-16T09:30:54.472Z,80.70
2022-10-16T09:33:26.347Z,78.60
2022-10-16T09:35:56.477Z,80.40
2022-10-16T09:38:29.290Z,77.30
2022-10-16T09:41:03.040Z,77.60
2022-10-16T09:43:38.468Z,80.00
2022-10-16T09:46:08.276Z,78.00
2022-10-16T09:48:40.785Z,76.80
2022-10-16T09:51:18.459Z,75.80
2022-10-16T09:53:48.826Z,79.80
2022-10-16T09:56:25.088Z,79.30
2022-10-16T09:58:53.631Z,78.00
2022-10-16T10:01:22.737Z,74.90
2022-10-16T10:03:54.768Z,74.90
2022-10-16T10:06:27.788Z,76.30
2022-10-16T10:09:07.537Z,75.00
2022-10-16T10:11:57.086Z,75.50
2022-10-16T10:14:29.090Z,72.60
2022-10-16T10:17:16.016Z,74.50
2022-10-16T10:19:49.428Z,72.20
2022-10-16T10:22:39.481Z,69.90
2022-10-16T10:25:21.407Z,70.40
2022-10-16T10:28:22.266Z,72.80
2022-10-16T10:30:58.532Z,70.00
2022-10-16T10:33:32.759Z,70.50
2022-10-16T10:36:15.046Z,69.30
2022-10-16T10:38:51.346Z,68.10
2022-10-16T10:41:50.954Z,67.90
2022-10-16T10:44:28.955Z,69.40
2022-10-16T10:46:59.758Z,68.20
2022-10-16T10:49:39.536Z,66.00
2022-10-16T10:52:18.585Z,66.90
2022-10-16T10:54:55.427Z,62.70
2022-10-16T11:00:16.867Z,66.70
2022-10-16T11:02:52.910Z,65.90
2022-10-16T11:05:43.826Z,65.40
2022-10-16T11:08:18.787Z,64.10
2022-10-16T11:10:55.325Z,60.40
2022-10-16T11:13:34.493Z,62.10
2022-10-16T11:16:08.030Z,61.60
2022-10-16T11:18:48.463Z,62.80
2022-10-16T11:21:19.482Z,60.60
2022-10-16T11:23:54.296Z,64.00
2022-10-16T11:26:25.959Z,64.20
2022-10-16T11:28:57.579Z,62.40
2022-10-16T11:31:33.060Z,60.90
2022-10-16T11:34:06.463Z,59.90
2022-10-16T11:36:39.676Z,60.00
2022-10-16T11:39:20.549Z,59.00
2022-10-16T11:41:52.432Z,60.50
2022-10-16T11:44:38.008Z,61.80
2022-10-16T11:47:39.993Z,61.80
2022-10-16T11:50:16.003Z,66.20
2022-10-16T11:52:50.600Z,66.80
2022-10-16T11:55:22.034Z,70.10
2022-10-16T11:57:54.149Z,70.40
2022-10-16T12:00:28.320Z,71.70
2022-10-16T12:03:06.646Z,69.80
2022-10-16T12:05:46.358Z,70.30
2022-10-16T12:08:17.778Z,73.00
2022-10-16T12:10:47.550Z,72.20
2022-10-16T12:13:32.737Z,74.70
2022-10-16T12:16:23.960Z,73.40
2022-10-16T12:19:05.066Z,72.90
2022-10-16T12:21:33.754Z,74.40
2022-10-16T12:24:04.423Z,74.60
2022-10-16T12:26:35.023Z,74.10
2022-10-16T12:29:16.550Z,75.10
2022-10-16T12:31:57.226Z,72.40
2022-10-16T12:34:30.420Z,70.80
2022-10-16T12:37:11.389Z,74.20
2022-10-16T12:39:39.598Z,73.20
2022-10-16T12:42:21.876Z,76.40
2022-10-16T12:44:49.874Z,73.60
2022-10-16T12:47:37.755Z,73.00
2022-10-16T12:50:24.965Z,75.60
2022-10-16T12:52:52.978Z,75.60
2022-10-16T12:55:22.501Z,75.40
2022-10-16T12:58:27.181Z,74.60
2022-10-16T13:00:59.629Z,74.90
2022-10-16T13:04:07.476Z,77.20
2022-10-16T13:06:41.416Z,74.70
2022-10-16T13:09:42.285Z,77.40
2022-10-16T13:12:34.022Z,74.40
2022-10-16T13:15:29.296Z,74.90
2022-10-16T13:18:05.674Z,75.40
2022-10-16T13:20:39.820Z,77.10
2022-10-16T13:23:17.246Z,77.40
2022-10-16T13:25:57.652Z,76.60
2022-10-16T13:28:32.974Z,75.80
2022-10-16T13:31:02.843Z,75.90
2022-10-16T13:33:35.340Z,75.60
2022-10-16T13:36:06.229Z,76.90
2022-10-16T13:38:35.960Z,75.30
2022-10-16T13:41:05.803Z,75.20
2022-10-16T13:43:37.057Z,73.00
2022-10-16T13:46:07.304Z,77.00
2022-10-16T13:48:36.464Z,77.30
2022-10-16T13:51:08.916Z,77.90
2022-10-16T13:53:38.147Z,79.10
2022-10-16T13:56:08.513Z,77.00
2022-10-16T13:58:36.729Z,74.30
2022-10-16T14:01:07.676Z,76.20
2022-10-16T14:03:37.560Z,78.40
2022-10-16T14:06:14.534Z,75.70
2022-10-16T14:08:45.680Z,77.60
2022-10-16T14:11:14.080Z,74.40
2022-10-16T14:13:45.967Z,73.50
2022-10-16T14:16:19.960Z,73.60
2022-10-16T14:18:55.047Z,76.70
2022-10-16T14:21:24.483Z,74.30
2022-10-16T14:23:52.614Z,74.40
2022-10-16T14:26:23.007Z,74.60
2022-10-16T14:29:03.016Z,74.90
2022-10-16T14:31:33.882Z,73.80
2022-10-16T14:34:02.373Z,78.00
2022-10-16T14:36:32.503Z,77.20
2022-10-16T14:39:03.764Z,73.50
2022-10-16T14:41:32.816Z,75.20
2022-10-16T14:44:04.979Z,76.00
2022-10-16T14:46:36.947Z,76.60
2022-10-16T14:49:15.467Z,77.60
2022-10-16T14:51:46.705Z,74.70
2022-10-16T14:54:15.805Z,75.00
2022-10-16T14:56:48.110Z,75.80
2022-10-16T14:59:19.732Z,76.00
2022-10-16T15:01:48.262Z,75.70
2022-10-16T15:04:17.375Z,75.40
2022-10-16T15:06:46.741Z,75.50
2022-10-16T15:09:15.008Z,75.50
2022-10-16T15:11:43.999Z,76.30
2022-10-16T15:16:47.834Z,76.00
2022-10-16T15:19:15.801Z,76.70
2022-10-16T15:21:44.512Z,76.90
2022-10-16T15:24:17.948Z,76.70
2022-10-16T15:26:49.813Z,78.80
2022-10-16T15:29:17.792Z,80.00
2022-10-16T15:31:48.264Z,80.50
2022-10-16T15:34:16.452Z,81.00
2022-10-16T15:36:44.373Z,81.20
2022-10-16T15:39:16.379Z,81.40
2022-10-16T15:41:45.117Z,82.70
2022-10-16T15:44:13.569Z,83.20
2022-10-16T15:46:41.669Z,84.20
2022-10-16T15:49:11.577Z,84.40
2022-10-16T15:51:41.398Z,85.10
2022-10-16T15:54:10.272Z,85.90
2022-10-16T15:56:39.679Z,86.20
2022-10-16T15:59:07.962Z,86.90
2022-10-16T16:01:36.630Z,87.30
2022-10-16T16:04:15.446Z,88.20
2022-10-16T16:06:53.877Z,88.90
2022-10-16T16:09:21.777Z,89.80
2022-10-16T16:11:53.173Z,90.60
2022-10-16T16:14:21.517Z,90.70
2022-10-16T16:16:49.510Z,91.00
2022-10-16T16:19:21.796Z,91.50
2022-10-16T16:21:49.974Z,92.10
2022-10-16T16:24:18.318Z,92.80
2022-10-16T16:26:46.327Z,93.60
2022-10-16T16:29:17.438Z,94.20
2022-10-16T16:31:48.003Z,94.70
2022-10-16T16:34:16.419Z,95.40
2022-10-16T16:36:44.384Z,95.70
2022-10-16T16:39:12.503Z,96.10
2022-10-16T16:41:41.907Z,96.60
2022-10-16T16:44:17.460Z,97.20
2022-10-16T16:46:46.938Z,97.60
2022-10-16T16:49:15.849Z,98.40
2022-10-16T16:51:44.110Z,98.90
2022-10-16T16:54:13.913Z,99.50
2022-10-16T16:56:43.969Z,99.90
2022-10-16T16:59:18.790Z,99.90
2022-10-16T17:01:47.045Z,99.90
2022-10-16T17:04:16.075Z,99.90
2022-10-16T17:06:44.633Z,99.90
2022-10-16T17:09:14.334Z,99.90
2022-10-16T17:11:43.898Z,99.90
2022-10-16T17:14:12.540Z,99.90
2022-10-16T17:16:44.672Z,99.90
2022-10-16T17:19:15.352Z,99.90
2022-10-16T17:21:43.741Z,99.90
2022-10-16T17:24:12.121Z,99.90
2022-10-16T17:26:41.353Z,99.90
2022-10-16T17:29:12.614Z,99.90
2022-10-16T17:31:43.439Z,99.90
2022-10-16T17:34:12.613Z,99.90
2022-10-16T17:36:43.923Z,99.90
2022-10-16T17:39:14.240Z,99.90
2022-10-16T17:41:42.223Z,99.90
2022-10-16T17:44:10.199Z,99.90
2022-10-16T17:46:40.955Z,99.90
2022-10-16T17:49:11.287Z,99.90
2022-10-16T17:51:39.527Z,99.90
2022-10-16T17:54:07.764Z,99.90
2022-10-16T17:56:36.223Z,99.90
2022-10-16T17:59:05.023Z,99.90
2022-10-16T18:01:35.002Z,99.90
2022-10-16T18:04:07.289Z,99.90
2022-10-16T18:06:37.517Z,99.90
2022-10-16T18:09:06.850Z,99.90
2022-10-16T18:11:35.563Z,99.90
2022-10-16T18:14:04.314Z,99.90
2022-10-16T18:16:33.231Z,99.90
2022-10-16T18:19:01.371Z,99.90
2022-10-16T18:21:29.884Z,99.90
2022-10-16T18:24:01.302Z,99.90
2022-10-16T18:26:29.893Z,99.90
2022-10-16T18:28:59.097Z,99.90
2022-10-16T18:31:27.693Z,99.90
2022-10-16T18:33:56.854Z,99.90
2022-10-16T18:36:29.392Z,99.90
2022-10-16T18:38:59.388Z,99.90
2022-10-16T18:41:28.306Z,99.90
2022-10-16T18:43:57.273Z,99.90
2022-10-16T18:46:26.410Z,99.90
2022-10-16T18:48:56.328Z,99.90
2022-10-16T18:51:26.333Z,99.90
2022-10-16T18:53:56.267Z,99.90
2022-10-16T18:56:27.069Z,99.90
2022-10-16T18:58:55.515Z,99.90
2022-10-16T19:01:25.336Z,99.90
2022-10-16T19:03:57.146Z,99.90
2022-10-16T19:06:25.621Z,99.90
2022-10-16T19:08:54.925Z,99.90
2022-10-16T19:11:26.187Z,99.90
2022-10-16T19:13:55.738Z,99.90
2022-10-16T19:16:27.559Z,99.90
2022-10-16T19:18:58.001Z,99.90
2022-10-16T19:21:27.657Z,99.90
2022-10-16T19:23:57.698Z,99.90
2022-10-16T19:26:28.174Z,99.90
2022-10-16T19:28:58.447Z,99.90
2022-10-16T19:31:28.181Z,99.90
2022-10-16T19:33:58.361Z,99.90
2022-10-16T19:36:28.425Z,99.90
2022-10-16T19:38:58.329Z,99.90
2022-10-16T19:41:28.443Z,99.90
2022-10-16T19:43:57.289Z,99.90
2022-10-16T19:46:27.268Z,99.90
2022-10-16T19:48:56.427Z,99.90
2022-10-16T19:51:32.743Z,99.90
2022-10-16T19:54:02.897Z,99.90
2022-10-16T19:56:34.186Z,99.90
2022-10-16T19:59:02.825Z,99.90
2022-10-16T20:01:35.122Z,99.90
2022-10-16T20:04:03.180Z,99.90
2022-10-16T20:06:31.294Z,99.90
2022-10-16T20:08:59.347Z,99.90
2022-10-16T20:11:29.341Z,99.90
2022-10-16T20:13:59.377Z,99.90
2022-10-16T20:16:28.836Z,99.90
2022-10-16T20:18:57.552Z,99.90
2022-10-16T20:21:28.070Z,99.90
2022-10-16T20:23:56.059Z,99.90
2022-10-16T20:26:25.979Z,99.90
2022-10-16T20:28:54.837Z,99.90
2022-10-16T20:31:26.601Z,99.90
2022-10-16T20:33:56.269Z,99.90
2022-10-16T20:36:25.894Z,99.90
2022-10-16T20:38:54.109Z,99.90
2022-10-16T20:41:22.056Z,99.90
2022-10-16T20:43:51.688Z,99.90
2022-10-16T20:46:22.022Z,99.90
2022-10-16T20:48:52.521Z,99.90
2022-10-16T20:51:23.094Z,99.90
2022-10-16T20:53:55.796Z,99.90
2022-10-16T20:56:24.520Z,99.90
2022-10-16T20:58:52.804Z,99.90
2022-10-16T21:01:22.591Z,99.90
2022-10-16T21:03:53.721Z,99.90
2022-10-16T21:06:21.948Z,99.90
2022-10-16T21:08:50.235Z,99.90
2022-10-16T21:11:20.584Z,99.90
2022-10-16T21:13:48.820Z,99.90
2022-10-16T21:16:17.274Z,99.90
2022-10-16T21:18:45.821Z,99.90
2022-10-16T21:21:22.740Z,99.90
2022-10-16T21:23:51.133Z,99.90
2022-10-16T21:26:23.262Z,99.90
2022-10-16T21:28:51.315Z,99.90
2022-10-16T21:31:21.327Z,99.90
2022-10-16T21:33:50.060Z,99.90
2022-10-16T21:36:20.464Z,99.90
2022-10-16T21:38:50.436Z,99.90
2022-10-16T21:41:20.828Z,99.90
2022-10-16T21:43:48.968Z,99.90
2022-10-16T21:46:18.895Z,99.90
2022-10-16T21:48:47.185Z,99.90
2022-10-16T21:51:16.204Z,99.90
2022-10-16T21:53:44.116Z,99.90
2022-10-16T21:56:19.180Z,99.90
2022-10-16T21:58:47.366Z,99.90
2022-10-16T22:01:17.480Z,99.90
2022-10-16T22:03:48.372Z,99.90
2022-10-16T22:06:19.084Z,99.90
2022-10-16T22:08:50.759Z,99.90
2022-10-16T22:11:22.979Z,99.90
2022-10-16T22:13:54.068Z,99.90
2022-10-16T22:16:25.097Z,99.90
2022-10-16T22:18:53.759Z,99.90
2022-10-16T22:21:21.733Z,99.90
2022-10-16T22:23:49.747Z,99.90
2022-10-16T22:26:19.038Z,99.90
2022-10-16T22:28:47.012Z,99.90
2022-10-16T22:31:16.159Z,99.90
2022-10-16T22:33:45.138Z,99.90
2022-10-16T22:36:15.634Z,99.90
2022-10-16T22:38:43.586Z,99.90
2022-10-16T22:41:13.141Z,99.90
2022-10-16T22:43:44.322Z,99.90
2022-10-16T22:46:14.556Z,99.90
2022-10-16T22:48:42.740Z,99.90
2022-10-16T22:51:16.546Z,99.90
2022-10-16T22:53:48.284Z,99.90
2022-10-16T22:56:18.340Z,99.90
2022-10-16T22:58:47.847Z,99.90
2022-10-16T23:01:17.936Z,99.90
2022-10-16T23:03:45.919Z,99.90
2022-10-16T23:06:13.989Z,99.90
2022-10-16T23:08:42.156Z,99.90
2022-10-16T23:11:12.059Z,99.90
2022-10-16T23:13:43.514Z,99.90
2022-10-16T23:16:14.399Z,99.90
2022-10-16T23:18:42.614Z,99.90
2022-10-16T23:21:12.288Z,99.90
2022-10-16T23:23:41.007Z,99.90
2022-10-16T23:26:11.115Z,99.90
2022-10-16T23:28:40.610Z,99.90
2022-10-16T23:31:09.727Z,99.90
2022-10-16T23:33:39.624Z,99.90
2022-10-16T23:36:09.346Z,99.90
2022-10-16T23:38:37.666Z,99.90
2022-10-16T23:41:05.967Z,99.90
2022-10-16T23:43:34.027Z,99.90
2022-10-16T23:46:02.046Z,99.90
2022-10-16T23:48:30.431Z,99.90
2022-10-16T23:50:59.811Z,99.90
2022-10-16T23:53:28.098Z,99.90
2022-10-16T23:55:56.261Z,99.90
2022-10-16T23:58:24.446Z,99.90
